sensor_id;sensor_type;location;lat;lon;timestamp;P1;durP1;ratioP1;P2;durP2;ratioP2
62861;SDS011;48953;53.110;5.592;2022-10-23T00:01:26;20.95;;;7.53;;
62861;SDS011;48953;53.110;5.592;2022-10-23T00:03:54;19.50;;;8.07;;
62861;SDS011;48953;53.110;5.592;2022-10-23T00:06:25;20.48;;;8.07;;
62861;SDS011;48953;53.110;5.592;2022-10-23T00:08:52;31.95;;;8.15;;
62861;SDS011;48953;53.110;5.592;2022-10-23T00:11:19;22.25;;;8.50;;
62861;SDS011;48953;53.110;5.592;2022-10-23T00:13:48;20.20;;;8.23;;
62861;SDS011;48953;53.110;5.592;2022-10-23T00:16:14;28.58;;;8.98;;
62861;SDS011;48953;53.110;5.592;2022-10-23T00:18:40;21.30;;;7.70;;
62861;SDS011;48953;53.110;5.592;2022-10-23T00:21:09;25.83;;;8.05;;
62861;SDS011;48953;53.110;5.592;2022-10-23T00:23:36;18.02;;;8.07;;
62861;SDS011;48953;53.110;5.592;2022-10-23T00:26:02;21.35;;;8.15;;
62861;SDS011;48953;53.110;5.592;2022-10-23T00:28:28;18.50;;;7.95;;
62861;SDS011;48953;53.110;5.592;2022-10-23T00:30:54;21.88;;;7.85;;
62861;SDS011;48953;53.110;5.592;2022-10-23T00:33:21;20.77;;;8.88;;
62861;SDS011;48953;53.110;5.592;2022-10-23T00:35:47;18.33;;;8.90;;
62861;SDS011;48953;53.110;5.592;2022-10-23T00:38:12;23.48;;;8.65;;
62861;SDS011;48953;53.110;5.592;2022-10-23T00:40:38;20.83;;;8.00;;
62861;SDS011;48953;53.110;5.592;2022-10-23T00:43:06;30.00;;;8.52;;
62861;SDS011;48953;53.110;5.592;2022-10-23T00:45:37;16.95;;;8.05;;
62861;SDS011;48953;53.110;5.592;2022-10-23T00:48:02;17.65;;;8.20;;
62861;SDS011;48953;53.110;5.592;2022-10-23T00:50:29;17.08;;;8.20;;
62861;SDS011;48953;53.110;5.592;2022-10-23T00:52:58;21.00;;;8.55;;
62861;SDS011;48953;53.110;5.592;2022-10-23T00:55:26;20.90;;;8.25;;
62861;SDS011;48953;53.110;5.592;2022-10-23T00:57:53;16.35;;;8.80;;
62861;SDS011;48953;53.110;5.592;2022-10-23T01:00:26;22.75;;;9.48;;
62861;SDS011;48953;53.110;5.592;2022-10-23T01:02:54;26.90;;;9.95;;
62861;SDS011;48953;53.110;5.592;2022-10-23T01:05:23;19.88;;;8.73;;
62861;SDS011;48953;53.110;5.592;2022-10-23T01:07:55;21.80;;;8.93;;
62861;SDS011;48953;53.110;5.592;2022-10-23T01:10:36;20.02;;;8.48;;
62861;SDS011;48953;53.110;5.592;2022-10-23T01:13:11;16.73;;;8.63;;
62861;SDS011;48953;53.110;5.592;2022-10-23T01:18:35;24.73;;;9.75;;
62861;SDS011;48953;53.110;5.592;2022-10-23T01:21:24;20.02;;;9.05;;
62861;SDS011;48953;53.110;5.592;2022-10-23T01:24:15;22.02;;;8.77;;
62861;SDS011;48953;53.110;5.592;2022-10-23T01:29:47;22.38;;;10.00;;
62861;SDS011;48953;53.110;5.592;2022-10-23T01:32:52;24.50;;;10.35;;
62861;SDS011;48953;53.110;5.592;2022-10-23T01:35:26;21.92;;;10.07;;
62861;SDS011;48953;53.110;5.592;2022-10-23T01:43:43;28.13;;;10.45;;
62861;SDS011;48953;53.110;5.592;2022-10-23T01:46:32;17.33;;;9.40;;
62861;SDS011;48953;53.110;5.592;2022-10-23T01:49:03;24.92;;;10.10;;
62861;SDS011;48953;53.110;5.592;2022-10-23T01:51:31;29.52;;;10.45;;
62861;SDS011;48953;53.110;5.592;2022-10-23T01:54:00;27.48;;;10.60;;
62861;SDS011;48953;53.110;5.592;2022-10-23T01:56:28;18.05;;;10.38;;
62861;SDS011;48953;53.110;5.592;2022-10-23T01:58:58;20.38;;;10.20;;
62861;SDS011;48953;53.110;5.592;2022-10-23T02:01:27;19.27;;;10.35;;
62861;SDS011;48953;53.110;5.592;2022-10-23T02:03:55;18.58;;;10.80;;
62861;SDS011;48953;53.110;5.592;2022-10-23T02:06:23;18.27;;;10.32;;
62861;SDS011;48953;53.110;5.592;2022-10-23T02:08:49;22.77;;;10.40;;
62861;SDS011;48953;53.110;5.592;2022-10-23T02:11:19;18.02;;;9.50;;
62861;SDS011;48953;53.110;5.592;2022-10-23T02:19:23;22.77;;;10.50;;
62861;SDS011;48953;53.110;5.592;2022-10-23T02:24:26;24.98;;;11.13;;
62861;SDS011;48953;53.110;5.592;2022-10-23T02:27:02;27.95;;;12.55;;
62861;SDS011;48953;53.110;5.592;2022-10-23T02:29:44;29.33;;;12.93;;
62861;SDS011;48953;53.110;5.592;2022-10-23T02:32:13;27.05;;;13.63;;
62861;SDS011;48953;53.110;5.592;2022-10-23T02:34:41;31.95;;;12.75;;
62861;SDS011;48953;53.110;5.592;2022-10-23T02:37:07;27.10;;;12.73;;
62861;SDS011;48953;53.110;5.592;2022-10-23T02:39:32;24.58;;;12.32;;
62861;SDS011;48953;53.110;5.592;2022-10-23T02:47:19;29.58;;;12.57;;
62861;SDS011;48953;53.110;5.592;2022-10-23T02:50:06;23.00;;;11.85;;
62861;SDS011;48953;53.110;5.592;2022-10-23T02:58:27;25.73;;;11.65;;
62861;SDS011;48953;53.110;5.592;2022-10-23T03:01:19;23.40;;;11.60;;
62861;SDS011;48953;53.110;5.592;2022-10-23T03:03:51;28.38;;;13.20;;
62861;SDS011;48953;53.110;5.592;2022-10-23T03:06:21;27.33;;;13.40;;
62861;SDS011;48953;53.110;5.592;2022-10-23T03:08:49;24.30;;;13.05;;
62861;SDS011;48953;53.110;5.592;2022-10-23T03:11:17;25.33;;;13.43;;
62861;SDS011;48953;53.110;5.592;2022-10-23T03:13:43;26.15;;;14.25;;
62861;SDS011;48953;53.110;5.592;2022-10-23T03:16:09;32.67;;;13.90;;
62861;SDS011;48953;53.110;5.592;2022-10-23T03:18:34;32.45;;;15.35;;
62861;SDS011;48953;53.110;5.592;2022-10-23T03:21:00;34.65;;;15.63;;
62861;SDS011;48953;53.110;5.592;2022-10-23T03:23:26;34.45;;;14.50;;
62861;SDS011;48953;53.110;5.592;2022-10-23T03:25:52;37.05;;;14.93;;
62861;SDS011;48953;53.110;5.592;2022-10-23T03:28:18;30.85;;;14.93;;
62861;SDS011;48953;53.110;5.592;2022-10-23T03:30:44;28.90;;;15.10;;
62861;SDS011;48953;53.110;5.592;2022-10-23T03:33:09;33.83;;;14.52;;
62861;SDS011;48953;53.110;5.592;2022-10-23T03:35:35;29.30;;;13.57;;
62861;SDS011;48953;53.110;5.592;2022-10-23T03:38:01;29.33;;;14.25;;
62861;SDS011;48953;53.110;5.592;2022-10-23T03:40:26;33.92;;;15.05;;
62861;SDS011;48953;53.110;5.592;2022-10-23T03:42:52;32.28;;;15.02;;
62861;SDS011;48953;53.110;5.592;2022-10-23T03:45:18;30.27;;;14.32;;
62861;SDS011;48953;53.110;5.592;2022-10-23T03:47:43;34.80;;;16.17;;
62861;SDS011;48953;53.110;5.592;2022-10-23T03:50:09;33.20;;;14.57;;
62861;SDS011;48953;53.110;5.592;2022-10-23T03:52:37;36.08;;;15.32;;
62861;SDS011;48953;53.110;5.592;2022-10-23T03:55:03;30.58;;;14.65;;
62861;SDS011;48953;53.110;5.592;2022-10-23T03:57:29;27.80;;;14.50;;
62861;SDS011;48953;53.110;5.592;2022-10-23T03:59:55;35.38;;;15.52;;
62861;SDS011;48953;53.110;5.592;2022-10-23T04:02:20;29.27;;;14.27;;
62861;SDS011;48953;53.110;5.592;2022-10-23T04:04:46;30.55;;;14.65;;
62861;SDS011;48953;53.110;5.592;2022-10-23T04:07:11;29.48;;;15.10;;
62861;SDS011;48953;53.110;5.592;2022-10-23T04:09:37;28.63;;;15.02;;
62861;SDS011;48953;53.110;5.592;2022-10-23T04:12:03;27.75;;;13.93;;
62861;SDS011;48953;53.110;5.592;2022-10-23T04:14:28;32.75;;;14.68;;
62861;SDS011;48953;53.110;5.592;2022-10-23T04:16:55;27.73;;;14.45;;
62861;SDS011;48953;53.110;5.592;2022-10-23T04:19:20;31.70;;;14.90;;
62861;SDS011;48953;53.110;5.592;2022-10-23T04:21:46;31.60;;;14.43;;
62861;SDS011;48953;53.110;5.592;2022-10-23T04:24:11;33.55;;;15.05;;
62861;SDS011;48953;53.110;5.592;2022-10-23T04:26:37;30.00;;;14.73;;
62861;SDS011;48953;53.110;5.592;2022-10-23T04:29:03;26.60;;;14.00;;
62861;SDS011;48953;53.110;5.592;2022-10-23T04:31:28;28.90;;;14.07;;
62861;SDS011;48953;53.110;5.592;2022-10-23T04:33:54;30.60;;;13.82;;
62861;SDS011;48953;53.110;5.592;2022-10-23T04:36:20;32.42;;;14.07;;
62861;SDS011;48953;53.110;5.592;2022-10-23T04:38:45;27.88;;;13.75;;
62861;SDS011;48953;53.110;5.592;2022-10-23T04:41:11;26.02;;;14.18;;
62861;SDS011;48953;53.110;5.592;2022-10-23T04:43:37;22.58;;;12.93;;
62861;SDS011;48953;53.110;5.592;2022-10-23T04:46:03;22.95;;;12.90;;
62861;SDS011;48953;53.110;5.592;2022-10-23T04:48:29;23.08;;;12.82;;
62861;SDS011;48953;53.110;5.592;2022-10-23T04:50:56;24.80;;;13.30;;
62861;SDS011;48953;53.110;5.592;2022-10-23T04:53:23;28.13;;;13.07;;
62861;SDS011;48953;53.110;5.592;2022-10-23T04:55:50;22.77;;;12.98;;
62861;SDS011;48953;53.110;5.592;2022-10-23T04:58:16;25.75;;;13.18;;
62861;SDS011;48953;53.110;5.592;2022-10-23T05:00:42;23.08;;;12.98;;
62861;SDS011;48953;53.110;5.592;2022-10-23T05:03:08;28.05;;;13.40;;
62861;SDS011;48953;53.110;5.592;2022-10-23T05:05:34;22.95;;;13.13;;
62861;SDS011;48953;53.110;5.592;2022-10-23T05:07:59;26.02;;;13.30;;
62861;SDS011;48953;53.110;5.592;2022-10-23T05:10:25;24.58;;;12.70;;
62861;SDS011;48953;53.110;5.592;2022-10-23T05:12:50;23.80;;;12.57;;
62861;SDS011;48953;53.110;5.592;2022-10-23T05:15:16;26.92;;;12.95;;
62861;SDS011;48953;53.110;5.592;2022-10-23T05:17:42;21.52;;;11.77;;
62861;SDS011;48953;53.110;5.592;2022-10-23T05:20:14;25.67;;;12.68;;
62861;SDS011;48953;53.110;5.592;2022-10-23T05:22:43;24.52;;;13.20;;
62861;SDS011;48953;53.110;5.592;2022-10-23T05:25:12;22.27;;;12.70;;
62861;SDS011;48953;53.110;5.592;2022-10-23T05:27:38;24.98;;;13.00;;
62861;SDS011;48953;53.110;5.592;2022-10-23T05:30:04;21.60;;;13.07;;
62861;SDS011;48953;53.110;5.592;2022-10-23T05:32:30;19.88;;;12.02;;
62861;SDS011;48953;53.110;5.592;2022-10-23T05:34:58;24.73;;;12.55;;
62861;SDS011;48953;53.110;5.592;2022-10-23T05:37:25;23.52;;;12.85;;
62861;SDS011;48953;53.110;5.592;2022-10-23T05:39:51;21.42;;;11.27;;
62861;SDS011;48953;53.110;5.592;2022-10-23T05:42:17;23.02;;;11.80;;
62861;SDS011;48953;53.110;5.592;2022-10-23T05:44:42;21.83;;;12.57;;
62861;SDS011;48953;53.110;5.592;2022-10-23T05:47:08;20.75;;;12.30;;
62861;SDS011;48953;53.110;5.592;2022-10-23T05:49:33;26.30;;;12.90;;
62861;SDS011;48953;53.110;5.592;2022-10-23T05:51:59;31.77;;;13.05;;
62861;SDS011;48953;53.110;5.592;2022-10-23T05:54:25;26.30;;;13.82;;
62861;SDS011;48953;53.110;5.592;2022-10-23T05:56:51;23.88;;;12.32;;
62861;SDS011;48953;53.110;5.592;2022-10-23T05:59:17;25.65;;;13.50;;
62861;SDS011;48953;53.110;5.592;2022-10-23T06:01:42;26.35;;;13.23;;
62861;SDS011;48953;53.110;5.592;2022-10-23T06:04:08;28.73;;;13.95;;
62861;SDS011;48953;53.110;5.592;2022-10-23T06:06:33;25.20;;;13.02;;
62861;SDS011;48953;53.110;5.592;2022-10-23T06:09:00;31.05;;;15.40;;
62861;SDS011;48953;53.110;5.592;2022-10-23T06:11:27;27.05;;;14.38;;
62861;SDS011;48953;53.110;5.592;2022-10-23T06:13:52;27.05;;;13.77;;
62861;SDS011;48953;53.110;5.592;2022-10-23T06:16:19;26.15;;;14.57;;
62861;SDS011;48953;53.110;5.592;2022-10-23T06:18:47;29.48;;;12.98;;
62861;SDS011;48953;53.110;5.592;2022-10-23T06:21:13;35.50;;;15.27;;
62861;SDS011;48953;53.110;5.592;2022-10-23T06:23:40;29.63;;;13.93;;
62861;SDS011;48953;53.110;5.592;2022-10-23T06:26:08;28.63;;;14.82;;
62861;SDS011;48953;53.110;5.592;2022-10-23T06:28:35;29.45;;;14.07;;
62861;SDS011;48953;53.110;5.592;2022-10-23T06:31:04;27.52;;;14.40;;
62861;SDS011;48953;53.110;5.592;2022-10-23T06:35:56;25.85;;;13.70;;
62861;SDS011;48953;53.110;5.592;2022-10-23T06:38:22;27.15;;;13.95;;
62861;SDS011;48953;53.110;5.592;2022-10-23T06:40:54;29.77;;;14.27;;
62861;SDS011;48953;53.110;5.592;2022-10-23T06:43:20;31.35;;;15.23;;
62861;SDS011;48953;53.110;5.592;2022-10-23T06:45:46;31.35;;;16.17;;
62861;SDS011;48953;53.110;5.592;2022-10-23T06:48:12;29.55;;;15.73;;
62861;SDS011;48953;53.110;5.592;2022-10-23T06:50:39;31.30;;;15.70;;
62861;SDS011;48953;53.110;5.592;2022-10-23T06:53:05;29.27;;;15.10;;
62861;SDS011;48953;53.110;5.592;2022-10-23T06:55:31;33.58;;;16.35;;
62861;SDS011;48953;53.110;5.592;2022-10-23T06:57:57;34.40;;;16.90;;
62861;SDS011;48953;53.110;5.592;2022-10-23T07:00:23;31.02;;;14.98;;
62861;SDS011;48953;53.110;5.592;2022-10-23T07:02:49;34.92;;;15.93;;
62861;SDS011;48953;53.110;5.592;2022-10-23T07:05:16;36.15;;;16.70;;
62861;SDS011;48953;53.110;5.592;2022-10-23T07:07:42;34.92;;;14.60;;
62861;SDS011;48953;53.110;5.592;2022-10-23T07:10:08;30.05;;;15.60;;
62861;SDS011;48953;53.110;5.592;2022-10-23T07:12:34;33.15;;;15.77;;
62861;SDS011;48953;53.110;5.592;2022-10-23T07:14:59;32.95;;;15.32;;
62861;SDS011;48953;53.110;5.592;2022-10-23T07:17:26;33.33;;;16.25;;
62861;SDS011;48953;53.110;5.592;2022-10-23T07:19:53;34.33;;;15.95;;
62861;SDS011;48953;53.110;5.592;2022-10-23T07:22:18;34.50;;;16.80;;
62861;SDS011;48953;53.110;5.592;2022-10-23T07:24:44;30.92;;;14.30;;
62861;SDS011;48953;53.110;5.592;2022-10-23T07:27:10;31.38;;;15.82;;
62861;SDS011;48953;53.110;5.592;2022-10-23T07:29:36;32.85;;;16.33;;
62861;SDS011;48953;53.110;5.592;2022-10-23T07:32:02;27.55;;;15.05;;
62861;SDS011;48953;53.110;5.592;2022-10-23T07:34:28;32.80;;;17.00;;
62861;SDS011;48953;53.110;5.592;2022-10-23T07:36:56;34.42;;;16.45;;
62861;SDS011;48953;53.110;5.592;2022-10-23T07:39:22;29.88;;;15.82;;
62861;SDS011;48953;53.110;5.592;2022-10-23T07:41:47;31.77;;;15.68;;
62861;SDS011;48953;53.110;5.592;2022-10-23T07:44:13;31.90;;;16.13;;
62861;SDS011;48953;53.110;5.592;2022-10-23T07:46:39;27.92;;;14.18;;
62861;SDS011;48953;53.110;5.592;2022-10-23T07:49:05;29.80;;;15.63;;
62861;SDS011;48953;53.110;5.592;2022-10-23T07:51:31;31.10;;;15.18;;
62861;SDS011;48953;53.110;5.592;2022-10-23T07:53:57;31.75;;;15.30;;
62861;SDS011;48953;53.110;5.592;2022-10-23T07:56:23;26.48;;;15.40;;
62861;SDS011;48953;53.110;5.592;2022-10-23T07:58:50;29.35;;;14.05;;
62861;SDS011;48953;53.110;5.592;2022-10-23T08:01:28;25.50;;;13.35;;
62861;SDS011;48953;53.110;5.592;2022-10-23T08:04:00;27.02;;;13.70;;
62861;SDS011;48953;53.110;5.592;2022-10-23T08:06:26;27.38;;;14.30;;
62861;SDS011;48953;53.110;5.592;2022-10-23T08:08:52;28.85;;;13.43;;
62861;SDS011;48953;53.110;5.592;2022-10-23T08:11:19;26.70;;;12.88;;
62861;SDS011;48953;53.110;5.592;2022-10-23T08:13:50;22.58;;;12.93;;
62861;SDS011;48953;53.110;5.592;2022-10-23T08:16:16;25.90;;;13.27;;
62861;SDS011;48953;53.110;5.592;2022-10-23T08:18:42;23.33;;;13.15;;
62861;SDS011;48953;53.110;5.592;2022-10-23T08:21:09;24.25;;;12.77;;
62861;SDS011;48953;53.110;5.592;2022-10-23T08:23:35;18.85;;;12.90;;
62861;SDS011;48953;53.110;5.592;2022-10-23T08:26:02;23.83;;;12.95;;
62861;SDS011;48953;53.110;5.592;2022-10-23T08:28:29;26.60;;;13.32;;
62861;SDS011;48953;53.110;5.592;2022-10-23T08:30:56;21.77;;;12.05;;
62861;SDS011;48953;53.110;5.592;2022-10-23T08:33:21;22.88;;;12.73;;
62861;SDS011;48953;53.110;5.592;2022-10-23T08:35:47;29.77;;;13.32;;
62861;SDS011;48953;53.110;5.592;2022-10-23T08:38:13;27.17;;;11.52;;
62861;SDS011;48953;53.110;5.592;2022-10-23T08:40:42;22.42;;;12.13;;
62861;SDS011;48953;53.110;5.592;2022-10-23T08:43:18;24.13;;;12.48;;
62861;SDS011;48953;53.110;5.592;2022-10-23T08:45:54;21.58;;;11.80;;
62861;SDS011;48953;53.110;5.592;2022-10-23T08:50:50;25.25;;;12.15;;
62861;SDS011;48953;53.110;5.592;2022-10-23T08:55:57;20.63;;;12.10;;
62861;SDS011;48953;53.110;5.592;2022-10-23T08:58:28;18.13;;;11.82;;
62861;SDS011;48953;53.110;5.592;2022-10-23T09:01:02;18.77;;;11.52;;
62861;SDS011;48953;53.110;5.592;2022-10-23T09:03:51;17.42;;;10.40;;
62861;SDS011;48953;53.110;5.592;2022-10-23T09:06:33;19.30;;;11.68;;
62861;SDS011;48953;53.110;5.592;2022-10-23T09:09:07;20.33;;;11.38;;
62861;SDS011;48953;53.110;5.592;2022-10-23T09:14:54;15.35;;;10.40;;
62861;SDS011;48953;53.110;5.592;2022-10-23T09:17:40;17.65;;;10.65;;
62861;SDS011;48953;53.110;5.592;2022-10-23T09:20:26;21.70;;;11.10;;
62861;SDS011;48953;53.110;5.592;2022-10-23T09:22:57;18.50;;;10.53;;
62861;SDS011;48953;53.110;5.592;2022-10-23T09:25:44;15.63;;;9.98;;
62861;SDS011;48953;53.110;5.592;2022-10-23T09:28:56;17.88;;;10.48;;
62861;SDS011;48953;53.110;5.592;2022-10-23T09:31:10;16.88;;;9.48;;
62861;SDS011;48953;53.110;5.592;2022-10-23T09:33:37;15.75;;;9.77;;
62861;SDS011;48953;53.110;5.592;2022-10-23T09:38:38;15.75;;;9.18;;
62861;SDS011;48953;53.110;5.592;2022-10-23T09:41:17;19.08;;;10.27;;
62861;SDS011;48953;53.110;5.592;2022-10-23T09:43:46;16.00;;;10.07;;
62861;SDS011;48953;53.110;5.592;2022-10-23T09:46:23;16.27;;;10.52;;
62861;SDS011;48953;53.110;5.592;2022-10-23T09:48:56;13.23;;;8.88;;
62861;SDS011;48953;53.110;5.592;2022-10-23T09:51:22;18.52;;;10.40;;
62861;SDS011;48953;53.110;5.592;2022-10-23T09:53:52;16.05;;;10.07;;
62861;SDS011;48953;53.110;5.592;2022-10-23T09:56:34;12.90;;;9.00;;
62861;SDS011;48953;53.110;5.592;2022-10-23T10:01:44;16.00;;;8.73;;
62861;SDS011;48953;53.110;5.592;2022-10-23T10:04:12;15.52;;;9.02;;
62861;SDS011;48953;53.110;5.592;2022-10-23T10:06:38;13.13;;;8.95;;
62861;SDS011;48953;53.110;5.592;2022-10-23T10:09:09;13.52;;;8.55;;
62861;SDS011;48953;53.110;5.592;2022-10-23T10:16:57;22.08;;;11.95;;
62861;SDS011;48953;53.110;5.592;2022-10-23T10:25:20;13.88;;;8.60;;
62861;SDS011;48953;53.110;5.592;2022-10-23T10:33:52;11.25;;;7.50;;
62861;SDS011;48953;53.110;5.592;2022-10-23T10:39:30;13.13;;;8.65;;
62861;SDS011;48953;53.110;5.592;2022-10-23T10:45:07;14.05;;;8.60;;
62861;SDS011;48953;53.110;5.592;2022-10-23T10:47:45;10.05;;;7.85;;
62861;SDS011;48953;53.110;5.592;2022-10-23T10:50:17;12.88;;;7.95;;
62861;SDS011;48953;53.110;5.592;2022-10-23T10:57:55;11.93;;;8.10;;
62861;SDS011;48953;53.110;5.592;2022-10-23T11:00:23;11.32;;;7.07;;
62861;SDS011;48953;53.110;5.592;2022-10-23T11:02:56;11.57;;;7.60;;
62861;SDS011;48953;53.110;5.592;2022-10-23T11:08:04;13.45;;;6.97;;
62861;SDS011;48953;53.110;5.592;2022-10-23T11:10:43;11.35;;;6.85;;
62861;SDS011;48953;53.110;5.592;2022-10-23T11:13:32;10.52;;;6.93;;
62861;SDS011;48953;53.110;5.592;2022-10-23T11:16:26;9.93;;;6.28;;
62861;SDS011;48953;53.110;5.592;2022-10-23T11:30:23;11.02;;;6.75;;
62861;SDS011;48953;53.110;5.592;2022-10-23T11:38:31;7.50;;;5.60;;
62861;SDS011;48953;53.110;5.592;2022-10-23T11:40:59;7.88;;;6.03;;
62861;SDS011;48953;53.110;5.592;2022-10-23T11:43:50;10.75;;;6.03;;
62861;SDS011;48953;53.110;5.592;2022-10-23T11:48:52;8.10;;;5.45;;
62861;SDS011;48953;53.110;5.592;2022-10-23T11:51:25;7.40;;;6.30;;
62861;SDS011;48953;53.110;5.592;2022-10-23T11:54:03;9.98;;;5.90;;
62861;SDS011;48953;53.110;5.592;2022-10-23T11:56:49;8.82;;;5.78;;
62861;SDS011;48953;53.110;5.592;2022-10-23T11:59:33;12.65;;;6.13;;
62861;SDS011;48953;53.110;5.592;2022-10-23T12:02:09;8.73;;;5.65;;
62861;SDS011;48953;53.110;5.592;2022-10-23T12:05:03;8.93;;;5.03;;
62861;SDS011;48953;53.110;5.592;2022-10-23T12:07:37;8.20;;;5.68;;
62861;SDS011;48953;53.110;5.592;2022-10-23T12:12:56;8.30;;;4.47;;
62861;SDS011;48953;53.110;5.592;2022-10-23T12:15:24;8.45;;;4.57;;
62861;SDS011;48953;53.110;5.592;2022-10-23T12:17:51;6.50;;;4.78;;
62861;SDS011;48953;53.110;5.592;2022-10-23T12:31:02;7.25;;;4.78;;
62861;SDS011;48953;53.110;5.592;2022-10-23T12:39:37;8.60;;;5.00;;
62861;SDS011;48953;53.110;5.592;2022-10-23T12:42:04;6.03;;;4.45;;
62861;SDS011;48953;53.110;5.592;2022-10-23T12:44:39;7.95;;;4.35;;
62861;SDS011;48953;53.110;5.592;2022-10-23T12:47:05;7.13;;;4.38;;
62861;SDS011;48953;53.110;5.592;2022-10-23T12:49:31;6.07;;;3.97;;
62861;SDS011;48953;53.110;5.592;2022-10-23T12:54:29;5.20;;;3.45;;
62861;SDS011;48953;53.110;5.592;2022-10-23T12:56:56;8.95;;;4.68;;
62861;SDS011;48953;53.110;5.592;2022-10-23T12:59:22;6.20;;;3.63;;
62861;SDS011;48953;53.110;5.592;2022-10-23T13:01:50;8.30;;;4.38;;
62861;SDS011;48953;53.110;5.592;2022-10-23T13:04:27;8.75;;;4.70;;
62861;SDS011;48953;53.110;5.592;2022-10-23T13:06:56;9.60;;;4.50;;
62861;SDS011;48953;53.110;5.592;2022-10-23T13:09:33;5.95;;;4.00;;
62861;SDS011;48953;53.110;5.592;2022-10-23T13:12:05;5.97;;;4.43;;
62861;SDS011;48953;53.110;5.592;2022-10-23T13:16:59;7.18;;;4.15;;
62861;SDS011;48953;53.110;5.592;2022-10-23T13:19:28;5.82;;;4.00;;
62861;SDS011;48953;53.110;5.592;2022-10-23T13:21:54;7.53;;;4.25;;
62861;SDS011;48953;53.110;5.592;2022-10-23T13:24:21;8.75;;;4.68;;
62861;SDS011;48953;53.110;5.592;2022-10-23T13:26:50;10.15;;;4.28;;
62861;SDS011;48953;53.110;5.592;2022-10-23T13:29:20;5.93;;;4.05;;
62861;SDS011;48953;53.110;5.592;2022-10-23T13:31:48;7.05;;;4.30;;
62861;SDS011;48953;53.110;5.592;2022-10-23T13:36:51;9.05;;;4.32;;
62861;SDS011;48953;53.110;5.592;2022-10-23T13:39:29;6.38;;;4.32;;
62861;SDS011;48953;53.110;5.592;2022-10-23T13:41:57;7.18;;;4.43;;
62861;SDS011;48953;53.110;5.592;2022-10-23T13:44:32;5.68;;;3.95;;
62861;SDS011;48953;53.110;5.592;2022-10-23T13:47:01;7.45;;;4.60;;
62861;SDS011;48953;53.110;5.592;2022-10-23T13:49:27;6.35;;;4.05;;
62861;SDS011;48953;53.110;5.592;2022-10-23T13:51:53;6.60;;;4.13;;
62861;SDS011;48953;53.110;5.592;2022-10-23T13:54:23;8.05;;;3.88;;
62861;SDS011;48953;53.110;5.592;2022-10-23T13:56:51;8.45;;;3.80;;
62861;SDS011;48953;53.110;5.592;2022-10-23T13:59:17;6.45;;;4.10;;
62861;SDS011;48953;53.110;5.592;2022-10-23T14:01:44;6.82;;;3.95;;
62861;SDS011;48953;53.110;5.592;2022-10-23T14:04:12;6.72;;;3.63;;
62861;SDS011;48953;53.110;5.592;2022-10-23T14:06:38;7.20;;;3.40;;
62861;SDS011;48953;53.110;5.592;2022-10-23T14:09:04;7.80;;;3.53;;
62861;SDS011;48953;53.110;5.592;2022-10-23T14:11:31;5.72;;;3.40;;
62861;SDS011;48953;53.110;5.592;2022-10-23T14:13:57;4.70;;;3.63;;
62861;SDS011;48953;53.110;5.592;2022-10-23T14:16:24;4.72;;;3.33;;
62861;SDS011;48953;53.110;5.592;2022-10-23T14:18:49;6.85;;;4.15;;
62861;SDS011;48953;53.110;5.592;2022-10-23T14:21:16;6.03;;;3.88;;
62861;SDS011;48953;53.110;5.592;2022-10-23T14:23:44;5.82;;;3.90;;
62861;SDS011;48953;53.110;5.592;2022-10-23T14:26:11;7.07;;;3.67;;
62861;SDS011;48953;53.110;5.592;2022-10-23T14:28:39;9.60;;;3.90;;
62861;SDS011;48953;53.110;5.592;2022-10-23T14:31:06;8.73;;;4.13;;
62861;SDS011;48953;53.110;5.592;2022-10-23T14:33:33;7.43;;;4.07;;
62861;SDS011;48953;53.110;5.592;2022-10-23T14:35:58;5.47;;;3.60;;
62861;SDS011;48953;53.110;5.592;2022-10-23T14:38:24;6.20;;;3.30;;
62861;SDS011;48953;53.110;5.592;2022-10-23T14:40:49;5.53;;;3.92;;
62861;SDS011;48953;53.110;5.592;2022-10-23T14:43:16;7.15;;;4.20;;
62861;SDS011;48953;53.110;5.592;2022-10-23T14:45:41;8.27;;;4.07;;
62861;SDS011;48953;53.110;5.592;2022-10-23T14:48:07;5.13;;;3.40;;
62861;SDS011;48953;53.110;5.592;2022-10-23T14:50:33;5.95;;;3.45;;
62861;SDS011;48953;53.110;5.592;2022-10-23T14:53:00;6.30;;;3.80;;
62861;SDS011;48953;53.110;5.592;2022-10-23T14:55:26;6.65;;;3.53;;
62861;SDS011;48953;53.110;5.592;2022-10-23T14:57:55;4.85;;;3.75;;
62861;SDS011;48953;53.110;5.592;2022-10-23T15:00:21;10.05;;;4.15;;
62861;SDS011;48953;53.110;5.592;2022-10-23T15:02:47;8.18;;;3.80;;
62861;SDS011;48953;53.110;5.592;2022-10-23T15:05:13;5.97;;;3.47;;
62861;SDS011;48953;53.110;5.592;2022-10-23T15:07:39;6.75;;;3.75;;
62861;SDS011;48953;53.110;5.592;2022-10-23T15:10:04;5.05;;;3.85;;
62861;SDS011;48953;53.110;5.592;2022-10-23T15:12:31;6.05;;;3.20;;
62861;SDS011;48953;53.110;5.592;2022-10-23T15:14:56;11.23;;;3.38;;
62861;SDS011;48953;53.110;5.592;2022-10-23T15:17:22;5.03;;;3.40;;
62861;SDS011;48953;53.110;5.592;2022-10-23T15:19:48;7.70;;;3.90;;
62861;SDS011;48953;53.110;5.592;2022-10-23T15:22:13;6.43;;;3.65;;
62861;SDS011;48953;53.110;5.592;2022-10-23T15:24:39;6.47;;;3.53;;
62861;SDS011;48953;53.110;5.592;2022-10-23T15:27:04;6.30;;;3.70;;
62861;SDS011;48953;53.110;5.592;2022-10-23T15:29:30;8.38;;;3.30;;
62861;SDS011;48953;53.110;5.592;2022-10-23T15:31:56;7.47;;;3.72;;
62861;SDS011;48953;53.110;5.592;2022-10-23T15:34:23;4.43;;;3.55;;
62861;SDS011;48953;53.110;5.592;2022-10-23T15:36:51;5.47;;;3.70;;
62861;SDS011;48953;53.110;5.592;2022-10-23T15:39:19;6.90;;;3.53;;
62861;SDS011;48953;53.110;5.592;2022-10-23T15:41:49;6.28;;;3.75;;
62861;SDS011;48953;53.110;5.592;2022-10-23T15:44:16;10.48;;;3.90;;
62861;SDS011;48953;53.110;5.592;2022-10-23T15:46:43;7.65;;;3.38;;
62861;SDS011;48953;53.110;5.592;2022-10-23T15:49:09;6.30;;;3.35;;
62861;SDS011;48953;53.110;5.592;2022-10-23T15:51:35;6.68;;;3.60;;
62861;SDS011;48953;53.110;5.592;2022-10-23T15:54:05;8.45;;;3.72;;
62861;SDS011;48953;53.110;5.592;2022-10-23T15:56:32;7.75;;;4.00;;
62861;SDS011;48953;53.110;5.592;2022-10-23T15:58:58;7.30;;;3.20;;
62861;SDS011;48953;53.110;5.592;2022-10-23T16:01:24;5.90;;;3.15;;
62861;SDS011;48953;53.110;5.592;2022-10-23T16:03:50;6.50;;;3.55;;
62861;SDS011;48953;53.110;5.592;2022-10-23T16:06:16;6.72;;;3.60;;
62861;SDS011;48953;53.110;5.592;2022-10-23T16:08:43;6.32;;;4.10;;
62861;SDS011;48953;53.110;5.592;2022-10-23T16:11:11;6.40;;;4.00;;
62861;SDS011;48953;53.110;5.592;2022-10-23T16:13:39;5.22;;;3.63;;
62861;SDS011;48953;53.110;5.592;2022-10-23T16:16:05;7.65;;;3.88;;
62861;SDS011;48953;53.110;5.592;2022-10-23T16:18:31;6.63;;;3.90;;
62861;SDS011;48953;53.110;5.592;2022-10-23T16:20:56;8.80;;;3.90;;
62861;SDS011;48953;53.110;5.592;2022-10-23T16:23:22;7.57;;;3.70;;
62861;SDS011;48953;53.110;5.592;2022-10-23T16:25:47;4.63;;;3.90;;
62861;SDS011;48953;53.110;5.592;2022-10-23T16:28:15;6.43;;;3.70;;
62861;SDS011;48953;53.110;5.592;2022-10-23T16:30:41;8.60;;;3.90;;
62861;SDS011;48953;53.110;5.592;2022-10-23T16:33:07;6.65;;;3.90;;
62861;SDS011;48953;53.110;5.592;2022-10-23T16:35:33;6.45;;;3.55;;
62861;SDS011;48953;53.110;5.592;2022-10-23T16:38:00;13.35;;;5.45;;
62861;SDS011;48953;53.110;5.592;2022-10-23T16:40:25;8.40;;;5.18;;
62861;SDS011;48953;53.110;5.592;2022-10-23T16:42:51;9.00;;;4.28;;
62861;SDS011;48953;53.110;5.592;2022-10-23T16:45:16;6.50;;;4.30;;